Time;durP1;ratioP1;P1;durP2;ratioP2;P2;SDS_P1;SDS_P2;PMS_P1;PMS_P2;Temp;Humidity;BMP_temperature;BMP_pressure;BME280_temperature;BME280_humidity;BME280_pressure;Samples;Min_cycle;Max_cycle;Signal;HPM_P1;HPM_P2
2024/01/12 00:01:54;;;;;;;22.65;4.30;;;;;;;;;;5010497;28;20080;-81
2024/01/12 00:04:19;;;;;;;17.98;4.30;;;;;;;;;;5009027;28;20026;-80
2024/01/12 00:06:46;;;;;;;34.33;5.15;;;;;;;;;;5010484;28;20395;-81
2024/01/12 00:09:11;;;;;;;33.25;5.50;;;;;;;;;;5010237;28;20022;-81
2024/01/12 00:11:36;;;;;;;32.67;5.38;;;;;;;;;;5010239;28;20104;-79
2024/01/12 00:14:01;;;;;;;24.98;4.72;;;;;;;;;;5009091;28;20048;-81
2024/01/12 00:16:27;;;;;;;16.52;4.38;;;;;;;;;;5009228;28;20081;-82
2024/01/12 00:18:52;;;;;;;33.05;4.78;;;;;;;;;;5010598;28;20430;-81
2024/01/12 00:21:17;;;;;;;19.40;4.07;;;;;;;;;;5009070;28;20062;-81
2024/01/12 00:23:42;;;;;;;30.55;5.85;;;;;;;;;;5010234;28;20078;-81
2024/01/12 00:26:08;;;;;;;26.67;4.93;;;;;;;;;;5010315;28;20383;-80
2024/01/12 00:28:33;;;;;;;28.10;4.70;;;;;;;;;;5013815;28;20113;-80
2024/01/12 00:30:58;;;;;;;25.10;6.07;;;;;;;;;;5014070;28;20094;-80
2024/01/12 00:33:23;;;;;;;26.02;5.20;;;;;;;;;;5013817;28;20429;-81
2024/01/12 00:35:48;;;;;;;28.33;4.72;;;;;;;;;;5013407;28;20433;-81
2024/01/12 00:38:14;;;;;;;28.83;4.60;;;;;;;;;;5013589;28;20022;-81
2024/01/12 00:40:39;;;;;;;21.67;4.32;;;;;;;;;;5011983;28;20034;-81
2024/01/12 00:43:04;;;;;;;25.75;4.25;;;;;;;;;;5013685;28;20100;-81
2024/01/12 00:45:30;;;;;;;27.92;5.05;;;;;;;;;;5012587;28;20026;-81
2024/01/12 00:47:55;;;;;;;23.52;4.78;;;;;;;;;;5016414;28;20022;-81
2024/01/12 00:50:20;;;;;;;27.13;5.10;;;;;;;;;;5014256;28;20450;-80
2024/01/12 00:52:45;;;;;;;21.70;4.28;;;;;;;;;;5013997;28;20022;-80
2024/01/12 00:55:11;;;;;;;19.23;4.15;;;;;;;;;;5014306;28;20029;-81
2024/01/12 00:57:36;;;;;;;20.27;4.85;;;;;;;;;;5013926;28;20427;-80
2024/01/12 01:00:03;;;;;;;25.70;4.90;;;;;;;;;;5013596;28;20030;-81
2024/01/12 01:02:29;;;;;;;22.95;4.78;;;;;;;;;;5014078;28;20022;-81
2024/01/12 01:04:55;;;;;;;26.42;4.47;;;;;;;;;;5013632;28;20099;-81
2024/01/12 01:07:20;;;;;;;17.73;4.28;;;;;;;;;;5013995;28;20034;-81
2024/01/12 01:09:45;;;;;;;25.83;4.75;;;;;;;;;;5013627;28;20056;-79
2024/01/12 01:12:10;;;;;;;30.30;4.07;;;;;;;;;;5017323;28;20441;-81
2024/01/12 01:14:35;;;;;;;33.80;4.72;;;;;;;;;;5022910;28;20029;-80
2024/01/12 01:17:01;;;;;;;29.17;4.75;;;;;;;;;;5022928;28;20057;-81
2024/01/12 01:19:26;;;;;;;24.48;4.28;;;;;;;;;;5021349;28;20052;-80
2024/01/12 01:21:51;;;;;;;36.00;4.82;;;;;;;;;;5021644;28;20419;-79
2024/01/12 01:24:16;;;;;;;17.02;3.97;;;;;;;;;;5020627;28;20097;-80
2024/01/12 01:26:42;;;;;;;17.48;3.30;;;;;;;;;;5020785;28;20038;-80
2024/01/12 01:29:07;;;;;;;23.13;3.70;;;;;;;;;;5018406;28;20151;-80
2024/01/12 01:31:32;;;;;;;22.67;4.32;;;;;;;;;;5014862;28;20021;-80
2024/01/12 01:33:58;;;;;;;24.88;4.82;;;;;;;;;;5013746;28;20030;-80
2024/01/12 01:36:23;;;;;;;22.92;4.70;;;;;;;;;;5013217;28;20092;-81
2024/01/12 01:38:48;;;;;;;28.03;4.90;;;;;;;;;;5012280;28;20184;-80
2024/01/12 01:41:13;;;;;;;16.17;4.07;;;;;;;;;;5013033;28;20273;-80
2024/01/12 01:43:38;;;;;;;22.63;3.75;;;;;;;;;;5012882;28;20105;-79
2024/01/12 01:46:04;;;;;;;23.52;3.55;;;;;;;;;;5012196;28;20105;-80
2024/01/12 01:48:29;;;;;;;22.92;6.32;;;;;;;;;;5012551;28;20037;-80
2024/01/12 01:50:54;;;;;;;24.55;4.63;;;;;;;;;;5011012;28;20390;-80
2024/01/12 01:53:20;;;;;;;22.75;3.53;;;;;;;;;;5012186;28;20113;-80
2024/01/12 01:55:45;;;;;;;24.05;3.88;;;;;;;;;;5012855;28;20111;-80
2024/01/12 01:58:11;;;;;;;27.00;3.90;;;;;;;;;;5012080;28;20101;-80
2024/01/12 02:00:36;;;;;;;18.05;3.75;;;;;;;;;;5011093;28;20463;-81
2024/01/12 02:03:01;;;;;;;25.45;3.63;;;;;;;;;;5012573;28;20021;-80
2024/01/12 02:05:28;;;;;;;17.20;3.72;;;;;;;;;;5012561;28;20050;-79
2024/01/12 02:07:53;;;;;;;12.63;3.30;;;;;;;;;;5012211;28;20021;-80
2024/01/12 02:10:18;;;;;;;21.00;3.88;;;;;;;;;;5011633;28;20407;-80
2024/01/12 02:12:44;;;;;;;21.25;3.38;;;;;;;;;;5012745;28;20049;-78
2024/01/12 02:15:10;;;;;;;21.33;3.83;;;;;;;;;;5011059;28;20087;-80
2024/01/12 02:17:35;;;;;;;20.58;4.07;;;;;;;;;;5012592;28;20095;-79
2024/01/12 02:20:00;;;;;;;22.73;3.63;;;;;;;;;;5010882;28;20041;-80
2024/01/12 02:22:26;;;;;;;27.02;3.85;;;;;;;;;;5012363;28;20105;-79
2024/01/12 02:24:51;;;;;;;19.58;3.22;;;;;;;;;;5012130;28;20095;-80
2024/01/12 02:27:17;;;;;;;16.27;3.30;;;;;;;;;;5012169;28;20026;-79
2024/01/12 02:29:42;;;;;;;21.52;3.47;;;;;;;;;;5012383;28;20037;-80
2024/01/12 02:32:08;;;;;;;20.10;2.97;;;;;;;;;;5012300;28;20033;-79
2024/01/12 02:34:33;;;;;;;18.35;3.17;;;;;;;;;;5012071;28;20434;-79
2024/01/12 02:36:58;;;;;;;17.55;3.05;;;;;;;;;;5012511;28;20029;-77
2024/01/12 02:39:24;;;;;;;20.35;3.55;;;;;;;;;;5012059;28;20038;-79
2024/01/12 02:41:49;;;;;;;11.90;3.13;;;;;;;;;;5011418;28;20426;-79
2024/01/12 02:44:14;;;;;;;14.07;3.20;;;;;;;;;;5011500;28;20030;-78
2024/01/12 02:46:40;;;;;;;15.80;3.10;;;;;;;;;;5011684;28;20034;-81
2024/01/12 02:49:05;;;;;;;20.58;3.45;;;;;;;;;;5011508;28;20102;-80
2024/01/12 02:51:30;;;;;;;23.98;3.22;;;;;;;;;;5011841;28;20076;-80
2024/01/12 02:53:55;;;;;;;20.57;3.27;;;;;;;;;;5011930;28;20429;-80
2024/01/12 02:56:21;;;;;;;20.38;3.10;;;;;;;;;;5010094;28;20261;-80
2024/01/12 02:58:46;;;;;;;27.67;3.83;;;;;;;;;;5011776;28;20069;-80
2024/01/12 03:01:12;;;;;;;13.93;2.88;;;;;;;;;;5011816;28;20358;-79
2024/01/12 03:03:37;;;;;;;22.58;3.00;;;;;;;;;;5011503;28;20093;-80
2024/01/12 03:06:02;;;;;;;23.33;3.70;;;;;;;;;;5010106;28;20029;-79
2024/01/12 03:08:27;;;;;;;24.73;4.03;;;;;;;;;;5011637;28;20022;-80
2024/01/12 03:10:53;;;;;;;18.92;3.95;;;;;;;;;;5011367;28;20096;-79
2024/01/12 03:13:18;;;;;;;20.20;2.80;;;;;;;;;;5012096;28;20034;-79
2024/01/12 03:15:43;;;;;;;17.90;2.60;;;;;;;;;;5011569;28;20125;-79
2024/01/12 03:18:08;;;;;;;16.60;2.83;;;;;;;;;;5011205;28;20040;-78
2024/01/12 03:20:35;;;;;;;19.63;3.75;;;;;;;;;;5011182;28;20481;-79
2024/01/12 03:23:00;;;;;;;19.25;3.17;;;;;;;;;;5011350;28;20052;-80
2024/01/12 03:25:25;;;;;;;14.05;2.85;;;;;;;;;;5011463;28;20030;-79
2024/01/12 03:27:50;;;;;;;17.77;2.85;;;;;;;;;;5011200;28;20435;-79
2024/01/12 03:30:16;;;;;;;20.63;3.22;;;;;;;;;;5011492;28;20486;-79
2024/01/12 03:32:42;;;;;;;17.67;3.53;;;;;;;;;;5011665;28;20522;-80
2024/01/12 03:35:07;;;;;;;21.17;3.63;;;;;;;;;;5010982;28;20144;-80
2024/01/12 03:37:33;;;;;;;18.50;3.72;;;;;;;;;;5009972;28;20022;-80
2024/01/12 03:39:58;;;;;;;19.30;3.75;;;;;;;;;;5010869;28;20038;-80
2024/01/12 03:42:23;;;;;;;18.42;3.60;;;;;;;;;;4993794;28;20026;-80
2024/01/12 03:44:48;;;;;;;10.57;2.92;;;;;;;;;;5010962;28;20026;-80
2024/01/12 03:47:13;;;;;;;17.83;3.58;;;;;;;;;;5010660;28;20133;-80
2024/01/12 03:49:39;;;;;;;20.27;2.63;;;;;;;;;;5011001;28;20037;-80
2024/01/12 03:52:05;;;;;;;11.60;2.83;;;;;;;;;;5011013;28;20053;-80
2024/01/12 03:54:30;;;;;;;23.00;3.92;;;;;;;;;;5010945;28;20044;-80
2024/01/12 03:56:56;;;;;;;12.63;3.65;;;;;;;;;;5011099;28;20417;-80
2024/01/12 03:59:21;;;;;;;14.82;2.42;;;;;;;;;;5009159;28;20070;-80
2024/01/12 04:01:46;;;;;;;12.50;2.90;;;;;;;;;;5013186;28;20026;-80
2024/01/12 04:04:12;;;;;;;21.30;3.58;;;;;;;;;;5014693;28;20030;-79
2024/01/12 04:06:39;;;;;;;19.38;4.03;;;;;;;;;;5014391;28;20462;-80
2024/01/12 04:09:04;;;;;;;15.13;3.30;;;;;;;;;;5014629;28;20026;-79
2024/01/12 04:11:30;;;;;;;14.82;3.05;;;;;;;;;;5013992;28;20068;-80
2024/01/12 04:13:55;;;;;;;19.70;3.33;;;;;;;;;;5013888;28;20022;-80
2024/01/12 04:16:20;;;;;;;14.50;3.50;;;;;;;;;;5014506;28;20160;-79
2024/01/12 04:18:46;;;;;;;12.88;2.75;;;;;;;;;;5012817;28;20426;-80
2024/01/12 04:21:12;;;;;;;21.30;3.92;;;;;;;;;;5014169;28;20026;-79
2024/01/12 04:23:38;;;;;;;19.35;3.33;;;;;;;;;;5014251;28;20105;-80
2024/01/12 04:26:03;;;;;;;10.95;2.88;;;;;;;;;;5014208;28;20458;-80
2024/01/12 04:28:28;;;;;;;14.57;2.97;;;;;;;;;;5013869;28;20438;-79
2024/01/12 04:30:53;;;;;;;23.80;3.90;;;;;;;;;;5014271;28;20101;-80
2024/01/12 04:33:19;;;;;;;16.35;3.55;;;;;;;;;;5013580;28;20065;-79
2024/01/12 04:35:44;;;;;;;13.05;2.80;;;;;;;;;;5013993;28;20033;-80
2024/01/12 04:38:10;;;;;;;16.58;3.60;;;;;;;;;;5014018;28;20033;-80
2024/01/12 04:40:36;;;;;;;24.65;4.32;;;;;;;;;;5013733;28;20026;-80
2024/01/12 04:43:01;;;;;;;9.60;2.75;;;;;;;;;;5013607;28;20029;-80
2024/01/12 04:45:26;;;;;;;14.95;3.80;;;;;;;;;;5014002;28;20071;-80
2024/01/12 04:47:51;;;;;;;16.98;3.22;;;;;;;;;;5013482;28;20018;-80
2024/01/12 04:50:17;;;;;;;12.20;2.63;;;;;;;;;;5013538;28;20084;-80
2024/01/12 04:52:42;;;;;;;18.30;3.40;;;;;;;;;;5013592;28;20140;-80
2024/01/12 04:55:08;;;;;;;14.60;3.38;;;;;;;;;;5013613;28;20025;-81
2024/01/12 04:57:33;;;;;;;20.70;4.18;;;;;;;;;;5013651;28;20022;-80
2024/01/12 04:59:58;;;;;;;10.60;3.10;;;;;;;;;;5013056;28;20045;-80
2024/01/12 05:02:23;;;;;;;16.35;3.67;;;;;;;;;;5013465;28;20018;-81
2024/01/12 05:04:49;;;;;;;19.05;4.18;;;;;;;;;;5012135;28;20108;-78
2024/01/12 05:07:14;;;;;;;19.08;3.80;;;;;;;;;;5013300;28;20069;-78
2024/01/12 05:09:39;;;;;;;15.63;2.97;;;;;;;;;;5011854;28;20030;-79
2024/01/12 05:12:04;;;;;;;11.20;2.88;;;;;;;;;;5013708;28;20056;-79
2024/01/12 05:14:31;;;;;;;16.00;3.25;;;;;;;;;;5016145;28;20026;-80
2024/01/12 05:16:56;;;;;;;13.57;3.50;;;;;;;;;;5013831;28;20025;-80
2024/01/12 05:19:21;;;;;;;17.65;4.35;;;;;;;;;;5011996;28;20030;-80
2024/01/12 05:21:47;;;;;;;14.23;3.22;;;;;;;;;;5013218;28;20025;-79
2024/01/12 05:24:12;;;;;;;18.33;4.38;;;;;;;;;;5013268;28;20021;-80
2024/01/12 05:26:37;;;;;;;13.77;3.47;;;;;;;;;;5013541;28;20423;-80
2024/01/12 05:29:02;;;;;;;16.33;3.65;;;;;;;;;;5013120;28;20022;-79
2024/01/12 05:31:28;;;;;;;16.35;3.75;;;;;;;;;;5013195;28;20022;-79
2024/01/12 05:33:53;;;;;;;15.65;4.10;;;;;;;;;;5012581;28;20068;-79
2024/01/12 05:36:18;;;;;;;22.00;4.47;;;;;;;;;;5012643;28;20451;-79
2024/01/12 05:38:44;;;;;;;15.32;3.78;;;;;;;;;;5011349;28;20435;-79
2024/01/12 05:41:10;;;;;;;13.60;4.50;;;;;;;;;;5012559;28;20451;-79
2024/01/12 05:43:35;;;;;;;15.93;4.50;;;;;;;;;;5012228;28;20058;-78
2024/01/12 05:46:00;;;;;;;13.27;3.58;;;;;;;;;;5011335;28;20026;-78
2024/01/12 05:48:25;;;;;;;14.77;3.55;;;;;;;;;;5012041;28;20112;-79
2024/01/12 05:50:50;;;;;;;20.98;4.00;;;;;;;;;;5011892;28;20060;-79
2024/01/12 05:53:16;;;;;;;13.23;4.10;;;;;;;;;;5012363;28;20045;-78
2024/01/12 05:55:41;;;;;;;11.88;3.78;;;;;;;;;;5011651;28;20022;-80
2024/01/12 05:58:07;;;;;;;12.77;3.55;;;;;;;;;;5012087;28;20045;-79
2024/01/12 06:00:32;;;;;;;19.17;4.30;;;;;;;;;;5010861;28;20030;-79
2024/01/12 06:02:57;;;;;;;15.60;3.92;;;;;;;;;;5011780;28;20029;-79
2024/01/12 06:05:22;;;;;;;13.68;4.10;;;;;;;;;;5012281;28;20335;-79
2024/01/12 06:07:48;;;;;;;14.55;4.55;;;;;;;;;;5012525;28;20037;-79
2024/01/12 06:10:13;;;;;;;24.10;4.82;;;;;;;;;;5012070;28;20033;-80
2024/01/12 06:12:38;;;;;;;24.92;4.47;;;;;;;;;;5011952;28;20525;-78
2024/01/12 06:15:04;;;;;;;17.00;3.90;;;;;;;;;;5011672;28;20101;-79
2024/01/12 06:17:29;;;;;;;21.77;4.55;;;;;;;;;;5012100;28;20064;-79
2024/01/12 06:19:54;;;;;;;17.38;4.13;;;;;;;;;;5011774;28;20034;-79
2024/01/12 06:22:19;;;;;;;12.20;4.20;;;;;;;;;;5011665;28;20045;-80
2024/01/12 06:24:44;;;;;;;18.77;4.82;;;;;;;;;;5011418;28;20196;-78
2024/01/12 06:27:10;;;;;;;14.82;4.10;;;;;;;;;;5011485;28;20116;-78
2024/01/12 06:29:36;;;;;;;18.08;4.70;;;;;;;;;;5011463;28;20072;-78
2024/01/12 06:32:03;;;;;;;16.77;4.47;;;;;;;;;;5010383;28;20410;-80
2024/01/12 06:34:28;;;;;;;26.55;9.93;;;;;;;;;;5011240;28;20034;-80
2024/01/12 06:36:54;;;;;;;20.70;7.07;;;;;;;;;;5011236;28;20029;-81
2024/01/12 06:39:19;;;;;;;19.42;6.32;;;;;;;;;;5009996;28;20041;-79
2024/01/12 06:41:46;;;;;;;22.17;5.22;;;;;;;;;;5011721;28;20018;-80
2024/01/12 06:44:11;;;;;;;15.32;5.38;;;;;;;;;;5011279;28;20108;-79
2024/01/12 06:46:45;;;;;;;15.27;4.78;;;;;;;;;;5011373;28;20107;-79
2024/01/12 06:49:11;;;;;;;16.00;4.57;;;;;;;;;;5010046;28;20042;-79
2024/01/12 06:51:36;;;;;;;12.45;4.05;;;;;;;;;;5011177;28;20080;-79
2024/01/12 06:54:02;;;;;;;15.30;4.75;;;;;;;;;;5009480;28;20030;-80
2024/01/12 06:56:27;;;;;;;16.48;4.63;;;;;;;;;;5011535;28;20112;-80
2024/01/12 06:58:52;;;;;;;16.30;4.97;;;;;;;;;;5009686;28;20168;-78
2024/01/12 07:01:18;;;;;;;15.77;4.67;;;;;;;;;;5009685;28;20018;-80
2024/01/12 07:03:43;;;;;;;13.88;4.93;;;;;;;;;;5011066;28;20257;-80
2024/01/12 07:06:09;;;;;;;16.55;5.13;;;;;;;;;;5010847;28;20022;-78
2024/01/12 07:08:34;;;;;;;18.70;5.20;;;;;;;;;;5011001;28;20018;-80
2024/01/12 07:11:03;;;;;;;23.48;4.78;;;;;;;;;;5010430;28;20026;-80
2024/01/12 07:13:28;;;;;;;17.23;5.35;;;;;;;;;;5011362;28;20014;-80
2024/01/12 07:15:53;;;;;;;20.83;5.30;;;;;;;;;;5011048;28;20021;-78
2024/01/12 07:18:19;;;;;;;15.27;5.38;;;;;;;;;;5010949;28;20093;-81
2024/01/12 07:20:44;;;;;;;21.15;5.90;;;;;;;;;;5010852;28;20080;-80
2024/01/12 07:23:09;;;;;;;31.58;7.50;;;;;;;;;;5010887;28;20030;-80
2024/01/12 07:25:37;;;;;;;33.65;8.23;;;;;;;;;;5010993;28;20018;-80
2024/01/12 07:28:03;;;;;;;22.15;7.80;;;;;;;;;;5010797;28;20101;-80
2024/01/12 07:30:28;;;;;;;13.63;4.68;;;;;;;;;;5010963;28;20058;-81
2024/01/12 07:32:53;;;;;;;22.92;5.43;;;;;;;;;;5010718;28;20381;-80
2024/01/12 07:35:18;;;;;;;17.77;5.78;;;;;;;;;;5010551;28;20080;-81
2024/01/12 07:37:44;;;;;;;23.17;5.30;;;;;;;;;;5014593;28;20371;-80
2024/01/12 07:40:10;;;;;;;13.95;4.63;;;;;;;;;;5014406;28;20599;-80
2024/01/12 07:42:35;;;;;;;9.85;4.57;;;;;;;;;;5014797;28;20351;-79
2024/01/12 07:45:00;;;;;;;23.83;4.93;;;;;;;;;;5014632;28;20120;-80
2024/01/12 07:47:25;;;;;;;19.55;5.28;;;;;;;;;;5014951;28;20307;-80
2024/01/12 07:49:51;;;;;;;26.30;5.28;;;;;;;;;;5014565;28;20106;-78
2024/01/12 07:52:16;;;;;;;18.60;5.47;;;;;;;;;;5014821;28;20097;-80
2024/01/12 07:54:41;;;;;;;15.57;4.63;;;;;;;;;;5014643;28;20045;-80
2024/01/12 07:57:06;;;;;;;21.10;5.63;;;;;;;;;;5013270;28;20018;-80
2024/01/12 07:59:32;;;;;;;27.02;5.53;;;;;;;;;;5014422;28;20038;-80
2024/01/12 08:01:57;;;;;;;16.00;5.15;;;;;;;;;;5014863;28;20022;-80
2024/01/12 08:04:22;;;;;;;19.58;5.03;;;;;;;;;;5014421;28;20045;-80
2024/01/12 08:06:47;;;;;;;17.88;5.28;;;;;;;;;;5014572;28;20057;-81
2024/01/12 08:09:13;;;;;;;15.82;4.90;;;;;;;;;;5013665;28;20104;-79
2024/01/12 08:11:38;;;;;;;17.23;5.07;;;;;;;;;;5013936;28;20128;-80
2024/01/12 08:14:04;;;;;;;22.58;7.00;;;;;;;;;;5014091;28;20018;-81
2024/01/12 08:16:31;;;;;;;25.15;6.22;;;;;;;;;;5014534;28;20025;-82
2024/01/12 08:18:56;;;;;;;26.60;5.97;;;;;;;;;;5013501;28;20045;-81
2024/01/12 08:21:21;;;;;;;22.52;7.15;;;;;;;;;;5014481;28;20113;-82
2024/01/12 08:23:46;;;;;;;19.00;6.35;;;;;;;;;;4996295;28;20057;-83
2024/01/12 08:26:13;;;;;;;23.58;7.82;;;;;;;;;;5013023;28;20092;-83
2024/01/12 08:28:39;;;;;;;18.92;5.13;;;;;;;;;;5011841;28;20394;-81
2024/01/12 08:31:04;;;;;;;26.20;5.60;;;;;;;;;;5013164;28;20050;-83
2024/01/12 08:33:29;;;;;;;24.13;4.40;;;;;;;;;;5013743;28;20026;-81
2024/01/12 08:35:55;;;;;;;19.88;4.25;;;;;;;;;;5013366;28;20076;-79
2024/01/12 08:38:20;;;;;;;17.88;4.18;;;;;;;;;;5012974;28;20037;-82
2024/01/12 08:40:45;;;;;;;27.73;4.50;;;;;;;;;;5013193;28;20029;-81
2024/01/12 08:43:12;;;;;;;30.80;4.30;;;;;;;;;;5012473;28;20047;-81
2024/01/12 08:45:37;;;;;;;11.98;3.33;;;;;;;;;;5012520;28;20025;-82
2024/01/12 08:48:02;;;;;;;16.02;4.05;;;;;;;;;;5011892;28;20104;-80
2024/01/12 08:50:30;;;;;;;23.20;4.20;;;;;;;;;;5012457;28;20109;-81
2024/01/12 08:52:56;;;;;;;26.70;5.60;;;;;;;;;;5012317;28;20437;-79
2024/01/12 08:55:21;;;;;;;21.35;5.93;;;;;;;;;;5013756;28;20100;-80
2024/01/12 08:57:46;;;;;;;18.05;4.32;;;;;;;;;;5013126;28;20113;-80
2024/01/12 09:00:12;;;;;;;17.58;4.78;;;;;;;;;;5013014;28;20080;-80
2024/01/12 09:02:38;;;;;;;30.35;5.03;;;;;;;;;;5013464;28;20426;-79
2024/01/12 09:05:03;;;;;;;27.95;4.43;;;;;;;;;;5013091;28;20068;-80
2024/01/12 09:07:28;;;;;;;15.52;3.42;;;;;;;;;;5013477;28;20038;-79
2024/01/12 09:09:54;;;;;;;21.88;4.45;;;;;;;;;;5013169;28;20405;-79
2024/01/12 09:12:19;;;;;;;22.75;3.75;;;;;;;;;;5011867;28;20405;-82
2024/01/12 09:14:44;;;;;;;19.83;3.30;;;;;;;;;;5012028;28;20386;-83
2024/01/12 09:17:10;;;;;;;22.00;3.90;;;;;;;;;;5011343;28;20347;-83
2024/01/12 09:19:35;;;;;;;21.23;4.28;;;;;;;;;;5013260;28;20407;-82
2024/01/12 09:22:03;;;;;;;20.38;4.05;;;;;;;;;;5012718;28;20103;-84
2024/01/12 09:24:28;;;;;;;13.50;3.63;;;;;;;;;;5012476;28;20014;-80
2024/01/12 09:26:53;;;;;;;15.88;3.65;;;;;;;;;;5012509;28;20022;-83
2024/01/12 09:29:18;;;;;;;21.08;4.15;;;;;;;;;;5012207;28;20030;-82
2024/01/12 09:31:44;;;;;;;14.57;3.85;;;;;;;;;;5012250;28;20204;-82
2024/01/12 09:34:09;;;;;;;18.73;4.07;;;;;;;;;;5011779;28;20014;-82
2024/01/12 09:36:34;;;;;;;20.98;4.88;;;;;;;;;;5012553;28;20033;-83
2024/01/12 09:38:59;;;;;;;18.00;4.30;;;;;;;;;;5010329;28;20038;-81
2024/01/12 09:41:29;;;;;;;24.67;5.47;;;;;;;;;;5012660;28;20045;-83
2024/01/12 09:43:57;;;;;;;19.77;5.90;;;;;;;;;;5011119;28;20076;-84
2024/01/12 09:46:24;;;;;;;30.10;7.03;;;;;;;;;;5012598;28;20072;-85
2024/01/12 09:48:49;;;;;;;25.98;7.57;;;;;;;;;;5012335;28;20101;-86
2024/01/12 09:51:14;;;;;;;33.53;11.40;;;;;;;;;;5012008;28;20143;-84
2024/01/12 09:53:40;;;;;;;32.78;12.30;;;;;;;;;;5012229;28;20021;-85
2024/01/12 09:56:05;;;;;;;25.45;6.82;;;;;;;;;;5012092;28;20526;-84
2024/01/12 09:58:31;;;;;;;28.17;6.25;;;;;;;;;;5010730;28;20026;-78
2024/01/12 10:00:56;;;;;;;23.60;6.95;;;;;;;;;;5012634;28;20442;-81
2024/01/12 10:03:23;;;;;;;15.82;3.42;;;;;;;;;;5012083;28;20033;-81
2024/01/12 10:05:48;;;;;;;21.00;4.68;;;;;;;;;;5012689;28;20045;-82
2024/01/12 10:08:13;;;;;;;13.80;3.65;;;;;;;;;;5011341;28;20386;-81
2024/01/12 10:10:39;;;;;;;13.10;4.53;;;;;;;;;;5011865;28;20421;-82
2024/01/12 10:13:04;;;;;;;18.23;4.63;;;;;;;;;;5012615;28;20425;-81
2024/01/12 10:15:29;;;;;;;16.17;3.83;;;;;;;;;;5010707;28;20044;-81
2024/01/12 10:17:55;;;;;;;17.60;3.72;;;;;;;;;;5011988;28;20018;-81
2024/01/12 10:20:22;;;;;;;19.83;4.05;;;;;;;;;;5011917;28;20445;-82
2024/01/12 10:22:54;;;;;;;10.90;3.17;;;;;;;;;;5010103;28;20320;-81
2024/01/12 10:25:19;;;;;;;14.07;3.75;;;;;;;;;;5011754;28;20022;-81
2024/01/12 10:27:53;;;;;;;18.33;3.38;;;;;;;;;;5011936;28;20048;-80
2024/01/12 10:30:18;;;;;;;21.08;4.18;;;;;;;;;;5010479;28;20112;-80
2024/01/12 10:32:49;;;;;;;17.02;3.67;;;;;;;;;;5011076;28;20160;-80
2024/01/12 10:35:15;;;;;;;24.08;3.10;;;;;;;;;;5011389;28;20073;-83
2024/01/12 10:37:40;;;;;;;24.70;5.50;;;;;;;;;;5011679;28;20022;-82
2024/01/12 10:40:06;;;;;;;12.00;2.90;;;;;;;;;;5011661;28;20032;-80
2024/01/12 10:42:33;;;;;;;16.77;3.13;;;;;;;;;;5011148;28;20155;-81
2024/01/12 10:44:59;;;;;;;20.02;3.83;;;;;;;;;;5011344;28;20204;-80
2024/01/12 10:47:29;;;;;;;24.95;3.28;;;;;;;;;;5011158;28;20433;-80
2024/01/12 10:49:59;;;;;;;16.42;2.78;;;;;;;;;;5010203;28;20022;-82
2024/01/12 10:52:31;;;;;;;16.17;2.78;;;;;;;;;;5011066;28;20104;-82
2024/01/12 10:55:10;;;;;;;12.18;3.15;;;;;;;;;;5011462;28;20060;-81
2024/01/12 10:57:36;;;;;;;18.67;3.13;;;;;;;;;;5009971;28;20481;-82
2024/01/12 11:00:02;;;;;;;19.58;2.95;;;;;;;;;;5011433;28;20053;-84
2024/01/12 11:02:30;;;;;;;12.55;2.63;;;;;;;;;;5008981;28;20033;-81
2024/01/12 11:04:57;;;;;;;23.30;3.97;;;;;;;;;;5010209;28;20021;-82
2024/01/12 11:07:22;;;;;;;14.93;2.47;;;;;;;;;;5008288;28;20010;-83
2024/01/12 11:09:48;;;;;;;17.90;3.05;;;;;;;;;;5010402;28;20360;-80
2024/01/12 11:12:32;;;;;;;18.63;4.82;;;;;;;;;;5010592;28;20060;-81
2024/01/12 11:14:57;;;;;;;21.10;4.80;;;;;;;;;;5011337;28;20029;-83
2024/01/12 11:17:27;;;;;;;15.50;3.45;;;;;;;;;;5012156;28;20029;-82
2024/01/12 11:20:02;;;;;;;15.15;2.90;;;;;;;;;;5011268;28;20115;-85
2024/01/12 11:22:27;;;;;;;16.30;3.00;;;;;;;;;;5010544;28;20064;-82
2024/01/12 11:24:53;;;;;;;13.88;3.22;;;;;;;;;;5009381;28;20034;-85
2024/01/12 11:27:18;;;;;;;22.50;3.40;;;;;;;;;;5010717;28;20371;-83
2024/01/12 11:29:44;;;;;;;13.15;2.78;;;;;;;;;;5010597;28;20037;-82
2024/01/12 11:32:14;;;;;;;14.95;2.63;;;;;;;;;;5011033;28;20054;-82
2024/01/12 11:34:39;;;;;;;14.60;2.45;;;;;;;;;;5010776;28;20022;-82
2024/01/12 11:37:08;;;;;;;20.38;2.47;;;;;;;;;;5010773;28;20034;-82
2024/01/12 11:39:34;;;;;;;15.55;2.50;;;;;;;;;;5010095;28;20113;-82
2024/01/12 11:42:00;;;;;;;16.55;2.92;;;;;;;;;;5010609;28;20072;-82
2024/01/12 11:44:26;;;;;;;9.25;2.22;;;;;;;;;;5010677;28;20050;-81
2024/01/12 11:46:51;;;;;;;10.52;2.30;;;;;;;;;;5010574;28;20090;-81
2024/01/12 11:49:17;;;;;;;9.07;1.83;;;;;;;;;;5010965;28;20021;-81
2024/01/12 11:51:43;;;;;;;16.98;1.70;;;;;;;;;;5010712;28;20388;-81
2024/01/12 11:54:08;;;;;;;12.15;2.85;;;;;;;;;;5010618;28;20080;-81
2024/01/12 11:56:33;;;;;;;4.82;1.23;;;;;;;;;;5010400;28;20435;-81
2024/01/12 11:58:59;;;;;;;9.77;2.22;;;;;;;;;;5010611;28;20485;-81
2024/01/12 12:01:24;;;;;;;5.57;1.00;;;;;;;;;;5008956;28;20085;-81
2024/01/12 12:03:50;;;;;;;4.32;0.90;;;;;;;;;;5009040;28;20029;-81
2024/01/12 12:06:15;;;;;;;5.75;1.20;;;;;;;;;;5010489;28;20029;-81
2024/01/12 12:08:40;;;;;;;6.20;1.30;;;;;;;;;;5010447;28;20135;-82
2024/01/12 12:11:06;;;;;;;9.57;1.55;;;;;;;;;;5010296;28;20108;-81
2024/01/12 12:13:35;;;;;;;5.82;1.23;;;;;;;;;;5008800;28;20092;-83
2024/01/12 12:16:00;;;;;;;5.72;1.00;;;;;;;;;;5010606;28;20034;-82
2024/01/12 12:18:25;;;;;;;4.15;1.42;;;;;;;;;;5010581;28;20045;-82
2024/01/12 12:20:51;;;;;;;1.58;0.75;;;;;;;;;;5008866;28;20037;-82
2024/01/12 12:23:16;;;;;;;5.32;1.20;;;;;;;;;;5013467;28;20037;-81
2024/01/12 12:25:42;;;;;;;5.70;1.13;;;;;;;;;;5014380;28;20021;-81
2024/01/12 12:28:07;;;;;;;3.15;1.02;;;;;;;;;;5014164;28;20022;-81
2024/01/12 12:30:32;;;;;;;7.45;1.45;;;;;;;;;;5014000;28;20120;-81
2024/01/12 12:32:58;;;;;;;3.43;0.80;;;;;;;;;;5014342;28;20356;-80
2024/01/12 12:35:23;;;;;;;3.35;1.05;;;;;;;;;;5014538;28;20692;-84
2024/01/12 12:37:49;;;;;;;2.47;0.70;;;;;;;;;;5012902;28;20418;-84
2024/01/12 12:40:14;;;;;;;9.20;1.40;;;;;;;;;;5014202;28;20030;-87
2024/01/12 12:42:40;;;;;;;3.53;0.88;;;;;;;;;;5012861;28;20026;-85
2024/01/12 12:45:06;;;;;;;7.30;0.88;;;;;;;;;;5014054;28;20054;-87
2024/01/12 12:47:32;;;;;;;4.40;1.25;;;;;;;;;;5013937;28;20508;-84
2024/01/12 12:49:58;;;;;;;5.90;1.15;;;;;;;;;;5014219;28;20112;-84
2024/01/12 12:52:23;;;;;;;5.47;1.20;;;;;;;;;;5013976;28;20403;-84
2024/01/12 12:54:48;;;;;;;5.82;0.80;;;;;;;;;;5013892;28;20021;-81
2024/01/12 12:57:14;;;;;;;5.43;1.35;;;;;;;;;;5013429;28;20029;-80
2024/01/12 12:59:39;;;;;;;5.57;1.00;;;;;;;;;;5012131;28;20072;-80
2024/01/12 13:02:05;;;;;;;6.82;0.80;;;;;;;;;;5013709;28;20022;-81
2024/01/12 13:04:30;;;;;;;7.57;1.48;;;;;;;;;;5011931;28;20123;-83
2024/01/12 13:06:56;;;;;;;7.78;1.02;;;;;;;;;;5013445;28;20081;-80
2024/01/12 13:09:22;;;;;;;4.32;1.35;;;;;;;;;;5013386;28;20029;-79
2024/01/12 13:11:48;;;;;;;4.18;1.27;;;;;;;;;;5012792;28;20552;-79
2024/01/12 13:14:14;;;;;;;7.47;1.42;;;;;;;;;;5014039;28;20038;-79
2024/01/12 13:16:39;;;;;;;4.22;1.25;;;;;;;;;;5013588;28;20033;-78
2024/01/12 13:19:04;;;;;;;9.10;1.35;;;;;;;;;;5013354;28;20018;-78
2024/01/12 13:21:30;;;;;;;7.28;1.15;;;;;;;;;;5013297;28;20090;-77
2024/01/12 13:23:56;;;;;;;2.35;0.80;;;;;;;;;;5011456;28;20066;-78
2024/01/12 13:26:22;;;;;;;5.97;1.05;;;;;;;;;;5012985;28;20033;-78
2024/01/12 13:28:47;;;;;;;3.03;1.00;;;;;;;;;;5013216;28;20401;-78
2024/01/12 13:31:12;;;;;;;3.97;0.70;;;;;;;;;;5013134;28;20438;-77
2024/01/12 13:33:37;;;;;;;4.28;0.70;;;;;;;;;;5012740;28;20790;-76
2024/01/12 13:36:03;;;;;;;2.58;0.65;;;;;;;;;;5012893;28;20475;-76
2024/01/12 13:38:28;;;;;;;3.25;0.70;;;;;;;;;;5013374;28;20022;-78
2024/01/12 13:40:56;;;;;;;3.58;1.13;;;;;;;;;;5012779;28;20026;-77
2024/01/12 13:43:21;;;;;;;4.07;0.98;;;;;;;;;;5012787;28;20034;-77
2024/01/12 13:45:46;;;;;;;4.23;1.40;;;;;;;;;;5013172;28;20022;-76
2024/01/12 13:48:12;;;;;;;2.85;1.52;;;;;;;;;;5012780;28;20257;-77
2024/01/12 13:50:37;;;;;;;3.95;0.80;;;;;;;;;;5013169;28;20029;-77
2024/01/12 13:53:03;;;;;;;6.60;1.10;;;;;;;;;;5012951;28;20305;-78
2024/01/12 13:55:28;;;;;;;6.20;1.33;;;;;;;;;;5013226;28;20022;-78
2024/01/12 13:57:53;;;;;;;5.85;1.42;;;;;;;;;;5012733;28;20080;-79
2024/01/12 14:00:19;;;;;;;3.58;0.85;;;;;;;;;;5012686;28;20030;-79
2024/01/12 14:02:44;;;;;;;4.85;0.93;;;;;;;;;;5012941;28;20105;-79
2024/01/12 14:05:10;;;;;;;5.25;0.77;;;;;;;;;;5013136;28;20029;-79
2024/01/12 14:07:36;;;;;;;6.47;1.67;;;;;;;;;;5013150;28;20104;-78
2024/01/12 14:10:02;;;;;;;3.40;1.00;;;;;;;;;;5013174;28;20103;-78
2024/01/12 14:12:29;;;;;;;13.32;1.80;;;;;;;;;;5013409;28;20447;-79
2024/01/12 14:14:54;;;;;;;7.10;2.42;;;;;;;;;;5013604;28;20026;-79
2024/01/12 14:17:19;;;;;;;2.50;1.30;;;;;;;;;;5014921;28;20429;-78
2024/01/12 14:19:45;;;;;;;7.55;1.90;;;;;;;;;;5016420;28;20041;-80
2024/01/12 14:22:11;;;;;;;15.43;5.68;;;;;;;;;;5017470;28;20034;-79
2024/01/12 14:24:36;;;;;;;9.50;4.35;;;;;;;;;;5015382;28;20030;-79